sensor_id;sensor_type;location;lat;lon;timestamp;P1;durP1;ratioP1;P2;durP2;ratioP2
14736;SDS011;7459;53.590;10.062;2024-03-22T00:01:52;15.90;;;7.17;;
14736;SDS011;7459;53.590;10.062;2024-03-22T00:04:19;18.92;;;7.25;;
14736;SDS011;7459;53.590;10.062;2024-03-22T00:06:45;16.48;;;7.30;;
14736;SDS011;7459;53.590;10.062;2024-03-22T00:09:12;17.00;;;7.18;;
14736;SDS011;7459;53.590;10.062;2024-03-22T00:11:39;20.63;;;7.80;;
14736;SDS011;7459;53.590;10.062;2024-03-22T00:14:06;15.90;;;7.20;;
14736;SDS011;7459;53.590;10.062;2024-03-22T00:16:32;17.50;;;7.60;;
14736;SDS011;7459;53.590;10.062;2024-03-22T00:18:58;17.98;;;7.03;;
14736;SDS011;7459;53.590;10.062;2024-03-22T00:21:24;18.15;;;7.63;;
14736;SDS011;7459;53.590;10.062;2024-03-22T00:23:50;17.98;;;8.63;;
14736;SDS011;7459;53.590;10.062;2024-03-22T00:26:16;22.90;;;7.50;;
14736;SDS011;7459;53.590;10.062;2024-03-22T00:28:42;16.20;;;7.25;;
14736;SDS011;7459;53.590;10.062;2024-03-22T00:31:08;16.63;;;7.70;;
14736;SDS011;7459;53.590;10.062;2024-03-22T00:33:34;17.65;;;6.88;;
14736;SDS011;7459;53.590;10.062;2024-03-22T00:35:59;21.33;;;9.18;;
14736;SDS011;7459;53.590;10.062;2024-03-22T00:38:25;15.53;;;7.67;;
14736;SDS011;7459;53.590;10.062;2024-03-22T00:40:51;19.17;;;7.78;;
14736;SDS011;7459;53.590;10.062;2024-03-22T00:43:16;17.73;;;8.43;;
14736;SDS011;7459;53.590;10.062;2024-03-22T00:45:42;19.23;;;8.90;;
14736;SDS011;7459;53.590;10.062;2024-03-22T00:48:08;16.70;;;7.37;;
14736;SDS011;7459;53.590;10.062;2024-03-22T00:50:33;20.13;;;10.55;;
14736;SDS011;7459;53.590;10.062;2024-03-22T00:52:59;18.02;;;8.55;;
14736;SDS011;7459;53.590;10.062;2024-03-22T00:55:27;16.83;;;7.68;;
14736;SDS011;7459;53.590;10.062;2024-03-22T00:57:53;17.50;;;7.70;;
14736;SDS011;7459;53.590;10.062;2024-03-22T01:00:18;17.48;;;8.82;;
14736;SDS011;7459;53.590;10.062;2024-03-22T01:02:44;15.47;;;7.47;;
14736;SDS011;7459;53.590;10.062;2024-03-22T01:05:10;19.63;;;8.45;;
14736;SDS011;7459;53.590;10.062;2024-03-22T01:07:36;21.00;;;9.27;;
14736;SDS011;7459;53.590;10.062;2024-03-22T01:10:05;17.42;;;8.00;;
14736;SDS011;7459;53.590;10.062;2024-03-22T01:12:31;16.25;;;8.55;;
14736;SDS011;7459;53.590;10.062;2024-03-22T01:14:57;16.87;;;8.03;;
14736;SDS011;7459;53.590;10.062;2024-03-22T01:17:23;19.08;;;8.70;;
14736;SDS011;7459;53.590;10.062;2024-03-22T01:19:49;18.73;;;8.53;;
14736;SDS011;7459;53.590;10.062;2024-03-22T01:22:16;19.90;;;8.95;;
14736;SDS011;7459;53.590;10.062;2024-03-22T01:24:42;18.42;;;8.18;;
14736;SDS011;7459;53.590;10.062;2024-03-22T01:27:09;19.98;;;8.10;;
14736;SDS011;7459;53.590;10.062;2024-03-22T01:29:34;20.33;;;8.17;;
14736;SDS011;7459;53.590;10.062;2024-03-22T01:32:01;19.27;;;8.98;;
14736;SDS011;7459;53.590;10.062;2024-03-22T01:34:27;19.73;;;9.48;;
14736;SDS011;7459;53.590;10.062;2024-03-22T01:36:52;21.47;;;8.90;;
14736;SDS011;7459;53.590;10.062;2024-03-22T01:39:19;17.92;;;8.80;;
14736;SDS011;7459;53.590;10.062;2024-03-22T01:41:48;21.83;;;9.98;;
14736;SDS011;7459;53.590;10.062;2024-03-22T01:44:17;22.90;;;8.98;;
14736;SDS011;7459;53.590;10.062;2024-03-22T01:46:44;19.48;;;9.68;;
14736;SDS011;7459;53.590;10.062;2024-03-22T01:49:11;18.03;;;9.20;;
14736;SDS011;7459;53.590;10.062;2024-03-22T01:51:42;18.65;;;7.90;;
14736;SDS011;7459;53.590;10.062;2024-03-22T01:54:09;23.05;;;9.38;;
14736;SDS011;7459;53.590;10.062;2024-03-22T01:56:38;23.45;;;9.23;;
14736;SDS011;7459;53.590;10.062;2024-03-22T01:59:05;19.50;;;9.43;;
14736;SDS011;7459;53.590;10.062;2024-03-22T02:01:31;23.20;;;9.00;;
14736;SDS011;7459;53.590;10.062;2024-03-22T02:03:58;21.88;;;8.95;;
14736;SDS011;7459;53.590;10.062;2024-03-22T02:06:23;20.35;;;9.60;;
14736;SDS011;7459;53.590;10.062;2024-03-22T02:08:49;19.23;;;10.40;;
14736;SDS011;7459;53.590;10.062;2024-03-22T02:11:15;19.88;;;9.32;;
14736;SDS011;7459;53.590;10.062;2024-03-22T02:13:40;20.77;;;9.30;;
14736;SDS011;7459;53.590;10.062;2024-03-22T02:16:08;22.30;;;9.57;;
14736;SDS011;7459;53.590;10.062;2024-03-22T02:18:33;20.42;;;9.82;;
14736;SDS011;7459;53.590;10.062;2024-03-22T02:20:59;23.50;;;11.00;;
14736;SDS011;7459;53.590;10.062;2024-03-22T02:23:32;23.08;;;10.52;;
14736;SDS011;7459;53.590;10.062;2024-03-22T02:26:00;21.80;;;10.27;;
14736;SDS011;7459;53.590;10.062;2024-03-22T02:28:26;22.45;;;10.45;;
14736;SDS011;7459;53.590;10.062;2024-03-22T02:30:52;20.60;;;10.80;;
14736;SDS011;7459;53.590;10.062;2024-03-22T02:33:18;21.58;;;10.43;;
14736;SDS011;7459;53.590;10.062;2024-03-22T02:35:45;24.13;;;10.50;;
14736;SDS011;7459;53.590;10.062;2024-03-22T02:38:12;23.17;;;10.55;;
14736;SDS011;7459;53.590;10.062;2024-03-22T02:40:37;25.52;;;11.45;;
14736;SDS011;7459;53.590;10.062;2024-03-22T02:43:03;23.13;;;10.90;;
14736;SDS011;7459;53.590;10.062;2024-03-22T02:45:29;26.47;;;11.73;;
14736;SDS011;7459;53.590;10.062;2024-03-22T02:47:56;24.83;;;11.13;;
14736;SDS011;7459;53.590;10.062;2024-03-22T02:50:22;24.83;;;11.60;;
14736;SDS011;7459;53.590;10.062;2024-03-22T02:52:50;25.03;;;11.37;;
14736;SDS011;7459;53.590;10.062;2024-03-22T02:55:16;28.23;;;12.00;;
14736;SDS011;7459;53.590;10.062;2024-03-22T02:57:42;27.13;;;12.52;;
14736;SDS011;7459;53.590;10.062;2024-03-22T03:00:08;24.00;;;11.52;;
14736;SDS011;7459;53.590;10.062;2024-03-22T03:02:34;26.50;;;12.77;;
14736;SDS011;7459;53.590;10.062;2024-03-22T03:07:35;27.00;;;11.95;;
14736;SDS011;7459;53.590;10.062;2024-03-22T03:10:01;25.53;;;11.60;;
14736;SDS011;7459;53.590;10.062;2024-03-22T03:12:27;25.27;;;11.82;;
14736;SDS011;7459;53.590;10.062;2024-03-22T03:14:52;28.53;;;12.70;;
14736;SDS011;7459;53.590;10.062;2024-03-22T03:17:18;29.17;;;12.38;;
14736;SDS011;7459;53.590;10.062;2024-03-22T03:19:44;30.37;;;13.97;;
14736;SDS011;7459;53.590;10.062;2024-03-22T03:22:10;30.73;;;13.77;;
14736;SDS011;7459;53.590;10.062;2024-03-22T03:24:35;34.17;;;14.63;;
14736;SDS011;7459;53.590;10.062;2024-03-22T03:27:01;29.30;;;13.75;;
14736;SDS011;7459;53.590;10.062;2024-03-22T03:29:27;33.92;;;13.23;;
14736;SDS011;7459;53.590;10.062;2024-03-22T03:31:53;33.50;;;14.80;;
14736;SDS011;7459;53.590;10.062;2024-03-22T03:34:19;27.67;;;12.57;;
14736;SDS011;7459;53.590;10.062;2024-03-22T03:36:45;30.20;;;14.80;;
14736;SDS011;7459;53.590;10.062;2024-03-22T03:39:11;30.27;;;13.57;;
14736;SDS011;7459;53.590;10.062;2024-03-22T03:41:37;33.47;;;14.40;;
14736;SDS011;7459;53.590;10.062;2024-03-22T03:44:02;33.00;;;15.33;;
14736;SDS011;7459;53.590;10.062;2024-03-22T03:46:28;37.95;;;15.90;;
14736;SDS011;7459;53.590;10.062;2024-03-22T03:48:54;36.40;;;15.90;;
14736;SDS011;7459;53.590;10.062;2024-03-22T03:51:19;35.10;;;15.90;;
14736;SDS011;7459;53.590;10.062;2024-03-22T03:53:45;33.63;;;14.47;;
14736;SDS011;7459;53.590;10.062;2024-03-22T03:56:11;36.40;;;16.58;;
14736;SDS011;7459;53.590;10.062;2024-03-22T03:58:37;37.50;;;16.20;;
14736;SDS011;7459;53.590;10.062;2024-03-22T04:01:08;35.38;;;16.17;;
14736;SDS011;7459;53.590;10.062;2024-03-22T04:03:34;35.95;;;16.30;;
14736;SDS011;7459;53.590;10.062;2024-03-22T04:06:00;37.27;;;15.77;;
14736;SDS011;7459;53.590;10.062;2024-03-22T04:08:27;32.65;;;14.60;;
14736;SDS011;7459;53.590;10.062;2024-03-22T04:10:55;34.75;;;15.50;;
14736;SDS011;7459;53.590;10.062;2024-03-22T04:13:22;38.55;;;15.85;;
14736;SDS011;7459;53.590;10.062;2024-03-22T04:15:48;35.10;;;16.48;;
14736;SDS011;7459;53.590;10.062;2024-03-22T04:18:14;38.93;;;16.30;;
14736;SDS011;7459;53.590;10.062;2024-03-22T04:20:40;39.95;;;17.73;;
14736;SDS011;7459;53.590;10.062;2024-03-22T04:23:05;36.00;;;16.50;;
14736;SDS011;7459;53.590;10.062;2024-03-22T04:25:31;38.83;;;16.83;;
14736;SDS011;7459;53.590;10.062;2024-03-22T04:27:57;37.80;;;17.95;;
14736;SDS011;7459;53.590;10.062;2024-03-22T04:30:22;41.33;;;18.30;;
14736;SDS011;7459;53.590;10.062;2024-03-22T04:32:48;43.90;;;18.17;;
14736;SDS011;7459;53.590;10.062;2024-03-22T04:35:14;41.57;;;17.70;;
14736;SDS011;7459;53.590;10.062;2024-03-22T04:37:39;39.40;;;18.60;;
14736;SDS011;7459;53.590;10.062;2024-03-22T04:40:05;39.93;;;18.30;;
14736;SDS011;7459;53.590;10.062;2024-03-22T04:42:31;45.15;;;18.50;;
14736;SDS011;7459;53.590;10.062;2024-03-22T04:44:57;42.67;;;19.50;;
14736;SDS011;7459;53.590;10.062;2024-03-22T04:47:23;42.67;;;18.27;;
14736;SDS011;7459;53.590;10.062;2024-03-22T04:49:49;43.47;;;19.33;;
14736;SDS011;7459;53.590;10.062;2024-03-22T04:52:14;40.60;;;17.63;;
14736;SDS011;7459;53.590;10.062;2024-03-22T04:54:40;41.90;;;18.63;;
14736;SDS011;7459;53.590;10.062;2024-03-22T04:57:06;45.55;;;18.90;;
14736;SDS011;7459;53.590;10.062;2024-03-22T04:59:32;43.60;;;18.15;;
14736;SDS011;7459;53.590;10.062;2024-03-22T05:01:57;40.97;;;18.07;;
14736;SDS011;7459;53.590;10.062;2024-03-22T05:04:23;45.40;;;19.13;;
14736;SDS011;7459;53.590;10.062;2024-03-22T05:06:49;41.80;;;18.58;;
14736;SDS011;7459;53.590;10.062;2024-03-22T05:09:14;40.20;;;18.07;;
14736;SDS011;7459;53.590;10.062;2024-03-22T05:11:40;40.40;;;18.20;;
14736;SDS011;7459;53.590;10.062;2024-03-22T05:14:06;42.75;;;18.60;;
14736;SDS011;7459;53.590;10.062;2024-03-22T05:16:31;43.27;;;18.60;;
14736;SDS011;7459;53.590;10.062;2024-03-22T05:18:57;40.15;;;19.13;;
14736;SDS011;7459;53.590;10.062;2024-03-22T05:21:23;42.73;;;19.00;;
14736;SDS011;7459;53.590;10.062;2024-03-22T05:23:49;44.85;;;18.40;;
14736;SDS011;7459;53.590;10.062;2024-03-22T05:26:15;42.37;;;19.63;;
14736;SDS011;7459;53.590;10.062;2024-03-22T05:28:40;43.83;;;18.75;;
14736;SDS011;7459;53.590;10.062;2024-03-22T05:31:06;40.37;;;17.80;;
14736;SDS011;7459;53.590;10.062;2024-03-22T05:33:32;40.60;;;18.60;;
14736;SDS011;7459;53.590;10.062;2024-03-22T05:35:57;40.88;;;17.67;;
14736;SDS011;7459;53.590;10.062;2024-03-22T05:38:24;42.53;;;18.30;;
14736;SDS011;7459;53.590;10.062;2024-03-22T05:40:49;42.90;;;19.67;;
14736;SDS011;7459;53.590;10.062;2024-03-22T05:43:15;45.90;;;18.77;;
14736;SDS011;7459;53.590;10.062;2024-03-22T05:45:41;41.07;;;18.83;;
14736;SDS011;7459;53.590;10.062;2024-03-22T05:48:07;45.40;;;19.35;;
14736;SDS011;7459;53.590;10.062;2024-03-22T05:50:32;43.37;;;19.23;;
14736;SDS011;7459;53.590;10.062;2024-03-22T05:52:58;45.90;;;20.50;;
14736;SDS011;7459;53.590;10.062;2024-03-22T05:55:24;41.40;;;18.90;;
14736;SDS011;7459;53.590;10.062;2024-03-22T05:57:52;43.00;;;17.98;;
14736;SDS011;7459;53.590;10.062;2024-03-22T06:00:18;42.97;;;19.08;;
14736;SDS011;7459;53.590;10.062;2024-03-22T06:02:43;43.37;;;20.60;;
14736;SDS011;7459;53.590;10.062;2024-03-22T06:05:09;42.20;;;18.75;;
14736;SDS011;7459;53.590;10.062;2024-03-22T06:07:35;41.03;;;17.83;;
14736;SDS011;7459;53.590;10.062;2024-03-22T06:10:06;40.20;;;18.50;;
14736;SDS011;7459;53.590;10.062;2024-03-22T06:12:35;44.97;;;19.60;;
14736;SDS011;7459;53.590;10.062;2024-03-22T06:15:01;41.93;;;18.77;;
14736;SDS011;7459;53.590;10.062;2024-03-22T06:17:31;40.40;;;17.63;;
14736;SDS011;7459;53.590;10.062;2024-03-22T06:19:58;49.25;;;21.00;;
14736;SDS011;7459;53.590;10.062;2024-03-22T06:22:25;47.75;;;19.73;;
14736;SDS011;7459;53.590;10.062;2024-03-22T06:24:50;47.77;;;21.27;;
14736;SDS011;7459;53.590;10.062;2024-03-22T06:27:16;48.33;;;20.77;;
14736;SDS011;7459;53.590;10.062;2024-03-22T06:29:42;48.35;;;21.27;;
14736;SDS011;7459;53.590;10.062;2024-03-22T06:32:08;44.83;;;19.33;;
14736;SDS011;7459;53.590;10.062;2024-03-22T06:34:33;52.13;;;21.17;;
14736;SDS011;7459;53.590;10.062;2024-03-22T06:36:59;43.00;;;20.33;;
14736;SDS011;7459;53.590;10.062;2024-03-22T06:39:25;45.40;;;20.35;;
14736;SDS011;7459;53.590;10.062;2024-03-22T06:41:51;47.30;;;20.17;;
14736;SDS011;7459;53.590;10.062;2024-03-22T06:44:16;50.77;;;20.73;;
14736;SDS011;7459;53.590;10.062;2024-03-22T06:46:42;48.20;;;20.60;;
14736;SDS011;7459;53.590;10.062;2024-03-22T06:49:08;46.33;;;20.10;;
14736;SDS011;7459;53.590;10.062;2024-03-22T06:51:33;49.47;;;21.02;;
14736;SDS011;7459;53.590;10.062;2024-03-22T06:53:59;46.17;;;20.67;;
14736;SDS011;7459;53.590;10.062;2024-03-22T06:56:25;46.45;;;20.75;;
14736;SDS011;7459;53.590;10.062;2024-03-22T06:58:50;47.30;;;21.47;;
14736;SDS011;7459;53.590;10.062;2024-03-22T07:01:16;45.03;;;19.85;;
14736;SDS011;7459;53.590;10.062;2024-03-22T07:03:42;50.20;;;21.73;;
14736;SDS011;7459;53.590;10.062;2024-03-22T07:06:11;52.00;;;21.30;;
14736;SDS011;7459;53.590;10.062;2024-03-22T07:08:39;46.85;;;21.17;;
14736;SDS011;7459;53.590;10.062;2024-03-22T07:11:05;48.10;;;21.33;;
14736;SDS011;7459;53.590;10.062;2024-03-22T07:13:31;48.10;;;20.48;;
14736;SDS011;7459;53.590;10.062;2024-03-22T07:15:57;48.33;;;20.60;;
14736;SDS011;7459;53.590;10.062;2024-03-22T07:18:23;49.28;;;21.48;;
14736;SDS011;7459;53.590;10.062;2024-03-22T07:20:49;45.22;;;21.05;;
14736;SDS011;7459;53.590;10.062;2024-03-22T07:23:14;47.77;;;20.13;;
14736;SDS011;7459;53.590;10.062;2024-03-22T07:25:40;52.30;;;22.08;;
14736;SDS011;7459;53.590;10.062;2024-03-22T07:28:07;49.00;;;21.38;;
14736;SDS011;7459;53.590;10.062;2024-03-22T07:30:33;50.80;;;20.20;;
14736;SDS011;7459;53.590;10.062;2024-03-22T07:33:00;52.50;;;20.48;;
14736;SDS011;7459;53.590;10.062;2024-03-22T07:35:26;52.70;;;21.42;;
14736;SDS011;7459;53.590;10.062;2024-03-22T07:37:51;50.80;;;22.50;;
14736;SDS011;7459;53.590;10.062;2024-03-22T07:40:18;53.88;;;22.13;;
14736;SDS011;7459;53.590;10.062;2024-03-22T07:42:45;45.47;;;20.90;;
14736;SDS011;7459;53.590;10.062;2024-03-22T07:45:10;50.77;;;21.50;;
14736;SDS011;7459;53.590;10.062;2024-03-22T07:47:36;58.53;;;22.88;;
14736;SDS011;7459;53.590;10.062;2024-03-22T07:50:02;52.05;;;24.20;;
14736;SDS011;7459;53.590;10.062;2024-03-22T07:52:28;50.15;;;21.63;;
14736;SDS011;7459;53.590;10.062;2024-03-22T07:54:54;59.20;;;24.63;;
14736;SDS011;7459;53.590;10.062;2024-03-22T07:57:19;52.47;;;22.07;;
14736;SDS011;7459;53.590;10.062;2024-03-22T07:59:45;51.17;;;22.83;;
14736;SDS011;7459;53.590;10.062;2024-03-22T08:02:12;48.17;;;21.15;;
14736;SDS011;7459;53.590;10.062;2024-03-22T08:04:38;54.30;;;23.03;;
14736;SDS011;7459;53.590;10.062;2024-03-22T08:07:03;53.72;;;22.55;;
14736;SDS011;7459;53.590;10.062;2024-03-22T08:09:29;50.25;;;21.02;;
14736;SDS011;7459;53.590;10.062;2024-03-22T08:11:55;51.40;;;22.77;;
14736;SDS011;7459;53.590;10.062;2024-03-22T08:14:20;51.67;;;21.65;;
14736;SDS011;7459;53.590;10.062;2024-03-22T08:16:46;54.63;;;23.50;;
14736;SDS011;7459;53.590;10.062;2024-03-22T08:19:12;54.95;;;24.40;;
14736;SDS011;7459;53.590;10.062;2024-03-22T08:21:38;55.20;;;22.45;;
14736;SDS011;7459;53.590;10.062;2024-03-22T08:24:04;53.15;;;22.50;;
14736;SDS011;7459;53.590;10.062;2024-03-22T08:26:30;51.63;;;24.17;;
14736;SDS011;7459;53.590;10.062;2024-03-22T08:28:56;52.90;;;22.17;;
14736;SDS011;7459;53.590;10.062;2024-03-22T08:31:21;53.00;;;23.60;;
14736;SDS011;7459;53.590;10.062;2024-03-22T08:33:50;52.35;;;23.77;;
14736;SDS011;7459;53.590;10.062;2024-03-22T08:36:17;55.20;;;22.37;;
14736;SDS011;7459;53.590;10.062;2024-03-22T08:38:42;58.85;;;24.90;;
14736;SDS011;7459;53.590;10.062;2024-03-22T08:41:08;58.40;;;23.03;;
14736;SDS011;7459;53.590;10.062;2024-03-22T08:43:34;54.20;;;22.90;;
14736;SDS011;7459;53.590;10.062;2024-03-22T08:45:59;54.87;;;22.77;;
14736;SDS011;7459;53.590;10.062;2024-03-22T08:48:25;60.67;;;23.48;;
14736;SDS011;7459;53.590;10.062;2024-03-22T08:50:51;57.40;;;23.77;;
14736;SDS011;7459;53.590;10.062;2024-03-22T08:53:17;51.03;;;22.67;;
14736;SDS011;7459;53.590;10.062;2024-03-22T08:55:49;58.77;;;24.10;;
14736;SDS011;7459;53.590;10.062;2024-03-22T08:58:14;55.47;;;23.13;;
14736;SDS011;7459;53.590;10.062;2024-03-22T09:00:42;61.30;;;24.65;;
14736;SDS011;7459;53.590;10.062;2024-03-22T09:03:08;57.45;;;24.45;;
14736;SDS011;7459;53.590;10.062;2024-03-22T09:05:34;57.20;;;22.70;;
14736;SDS011;7459;53.590;10.062;2024-03-22T09:08:00;57.00;;;23.05;;
14736;SDS011;7459;53.590;10.062;2024-03-22T09:10:26;57.55;;;22.98;;
14736;SDS011;7459;53.590;10.062;2024-03-22T09:12:52;60.47;;;24.95;;
14736;SDS011;7459;53.590;10.062;2024-03-22T09:15:17;58.60;;;24.42;;
14736;SDS011;7459;53.590;10.062;2024-03-22T09:17:43;55.97;;;24.30;;
14736;SDS011;7459;53.590;10.062;2024-03-22T09:20:09;60.75;;;23.75;;
14736;SDS011;7459;53.590;10.062;2024-03-22T09:22:35;54.45;;;23.08;;
14736;SDS011;7459;53.590;10.062;2024-03-22T09:25:01;63.37;;;26.27;;
14736;SDS011;7459;53.590;10.062;2024-03-22T09:27:27;54.33;;;22.20;;
14736;SDS011;7459;53.590;10.062;2024-03-22T09:29:52;58.03;;;22.43;;
14736;SDS011;7459;53.590;10.062;2024-03-22T09:32:18;58.15;;;24.08;;
14736;SDS011;7459;53.590;10.062;2024-03-22T09:34:44;61.47;;;23.70;;
14736;SDS011;7459;53.590;10.062;2024-03-22T09:37:10;56.65;;;22.52;;
14736;SDS011;7459;53.590;10.062;2024-03-22T09:39:35;53.97;;;22.37;;
14736;SDS011;7459;53.590;10.062;2024-03-22T09:42:01;55.47;;;22.90;;
14736;SDS011;7459;53.590;10.062;2024-03-22T09:44:31;57.40;;;23.60;;
14736;SDS011;7459;53.590;10.062;2024-03-22T09:46:58;61.38;;;22.92;;
14736;SDS011;7459;53.590;10.062;2024-03-22T09:49:25;53.50;;;22.00;;
14736;SDS011;7459;53.590;10.062;2024-03-22T09:51:51;55.63;;;22.65;;
14736;SDS011;7459;53.590;10.062;2024-03-22T09:54:17;55.37;;;22.00;;
14736;SDS011;7459;53.590;10.062;2024-03-22T09:56:43;49.85;;;20.77;;
14736;SDS011;7459;53.590;10.062;2024-03-22T09:59:12;51.05;;;21.25;;
14736;SDS011;7459;53.590;10.062;2024-03-22T10:01:38;48.23;;;20.80;;
14736;SDS011;7459;53.590;10.062;2024-03-22T10:04:06;47.30;;;20.45;;
14736;SDS011;7459;53.590;10.062;2024-03-22T10:06:34;46.38;;;20.08;;
14736;SDS011;7459;53.590;10.062;2024-03-22T10:09:00;47.07;;;19.40;;
14736;SDS011;7459;53.590;10.062;2024-03-22T10:11:26;39.97;;;17.55;;
14736;SDS011;7459;53.590;10.062;2024-03-22T10:13:52;42.20;;;18.05;;
14736;SDS011;7459;53.590;10.062;2024-03-22T10:16:20;35.80;;;16.55;;
14736;SDS011;7459;53.590;10.062;2024-03-22T10:18:48;40.22;;;17.25;;
14736;SDS011;7459;53.590;10.062;2024-03-22T10:21:18;43.33;;;17.40;;
14736;SDS011;7459;53.590;10.062;2024-03-22T10:23:44;36.03;;;16.52;;
14736;SDS011;7459;53.590;10.062;2024-03-22T10:26:11;38.97;;;16.52;;
14736;SDS011;7459;53.590;10.062;2024-03-22T10:28:37;33.97;;;15.23;;
14736;SDS011;7459;53.590;10.062;2024-03-22T10:31:11;38.67;;;16.10;;
14736;SDS011;7459;53.590;10.062;2024-03-22T10:33:38;37.53;;;16.05;;
14736;SDS011;7459;53.590;10.062;2024-03-22T10:36:05;38.05;;;16.38;;
14736;SDS011;7459;53.590;10.062;2024-03-22T10:38:32;36.80;;;15.30;;
14736;SDS011;7459;53.590;10.062;2024-03-22T10:41:01;37.45;;;15.00;;
14736;SDS011;7459;53.590;10.062;2024-03-22T10:43:28;34.10;;;15.07;;
14736;SDS011;7459;53.590;10.062;2024-03-22T10:45:54;35.55;;;14.75;;
14736;SDS011;7459;53.590;10.062;2024-03-22T10:48:25;36.22;;;14.15;;
14736;SDS011;7459;53.590;10.062;2024-03-22T10:50:55;28.48;;;12.70;;
14736;SDS011;7459;53.590;10.062;2024-03-22T10:53:24;28.95;;;13.27;;
14736;SDS011;7459;53.590;10.062;2024-03-22T10:55:52;28.92;;;12.35;;
14736;SDS011;7459;53.590;10.062;2024-03-22T10:58:22;23.17;;;11.40;;
14736;SDS011;7459;53.590;10.062;2024-03-22T11:00:52;23.83;;;11.00;;
14736;SDS011;7459;53.590;10.062;2024-03-22T11:03:24;25.00;;;10.15;;
14736;SDS011;7459;53.590;10.062;2024-03-22T11:05:54;24.80;;;10.60;;
14736;SDS011;7459;53.590;10.062;2024-03-22T11:10:52;20.67;;;10.00;;
14736;SDS011;7459;53.590;10.062;2024-03-22T11:13:18;20.98;;;9.93;;
14736;SDS011;7459;53.590;10.062;2024-03-22T11:15:51;20.08;;;10.07;;
14736;SDS011;7459;53.590;10.062;2024-03-22T11:18:17;20.08;;;10.80;;
14736;SDS011;7459;53.590;10.062;2024-03-22T11:20:43;21.70;;;10.00;;
14736;SDS011;7459;53.590;10.062;2024-03-22T11:23:12;19.27;;;9.10;;
14736;SDS011;7459;53.590;10.062;2024-03-22T11:25:38;15.95;;;8.20;;
14736;SDS011;7459;53.590;10.062;2024-03-22T11:28:04;16.25;;;7.75;;
14736;SDS011;7459;53.590;10.062;2024-03-22T11:30:30;17.15;;;7.80;;
14736;SDS011;7459;53.590;10.062;2024-03-22T11:33:00;15.70;;;7.07;;
14736;SDS011;7459;53.590;10.062;2024-03-22T11:35:30;14.63;;;7.57;;
14736;SDS011;7459;53.590;10.062;2024-03-22T11:37:56;16.05;;;6.43;;
14736;SDS011;7459;53.590;10.062;2024-03-22T11:40:23;16.02;;;7.30;;
14736;SDS011;7459;53.590;10.062;2024-03-22T11:42:51;12.90;;;6.45;;
14736;SDS011;7459;53.590;10.062;2024-03-22T11:45:19;18.05;;;6.93;;
14736;SDS011;7459;53.590;10.062;2024-03-22T11:47:46;15.25;;;7.55;;
14736;SDS011;7459;53.590;10.062;2024-03-22T11:50:12;15.70;;;6.93;;
14736;SDS011;7459;53.590;10.062;2024-03-22T11:52:39;13.18;;;7.03;;
14736;SDS011;7459;53.590;10.062;2024-03-22T11:55:06;17.17;;;7.63;;
14736;SDS011;7459;53.590;10.062;2024-03-22T11:57:32;14.20;;;6.70;;
14736;SDS011;7459;53.590;10.062;2024-03-22T11:59:58;15.50;;;6.22;;
14736;SDS011;7459;53.590;10.062;2024-03-22T12:02:25;13.18;;;6.10;;
14736;SDS011;7459;53.590;10.062;2024-03-22T12:04:51;12.13;;;6.10;;
14736;SDS011;7459;53.590;10.062;2024-03-22T12:07:17;13.60;;;6.22;;
14736;SDS011;7459;53.590;10.062;2024-03-22T12:09:44;15.00;;;6.95;;
14736;SDS011;7459;53.590;10.062;2024-03-22T12:12:10;12.93;;;5.90;;
14736;SDS011;7459;53.590;10.062;2024-03-22T12:14:37;14.77;;;6.57;;
14736;SDS011;7459;53.590;10.062;2024-03-22T12:17:04;13.27;;;6.60;;
14736;SDS011;7459;53.590;10.062;2024-03-22T12:19:31;12.95;;;5.95;;
14736;SDS011;7459;53.590;10.062;2024-03-22T12:21:56;12.80;;;5.83;;
14736;SDS011;7459;53.590;10.062;2024-03-22T12:24:22;13.07;;;6.40;;
14736;SDS011;7459;53.590;10.062;2024-03-22T12:26:49;15.60;;;6.40;;
14736;SDS011;7459;53.590;10.062;2024-03-22T12:29:16;11.98;;;6.50;;
14736;SDS011;7459;53.590;10.062;2024-03-22T12:31:42;13.15;;;6.43;;
14736;SDS011;7459;53.590;10.062;2024-03-22T12:34:08;14.52;;;6.07;;
14736;SDS011;7459;53.590;10.062;2024-03-22T12:36:34;10.68;;;4.68;;
14736;SDS011;7459;53.590;10.062;2024-03-22T12:39:00;10.52;;;4.35;;
14736;SDS011;7459;53.590;10.062;2024-03-22T12:41:25;9.17;;;3.23;;
14736;SDS011;7459;53.590;10.062;2024-03-22T12:43:54;9.02;;;4.28;;
14736;SDS011;7459;53.590;10.062;2024-03-22T12:46:20;8.65;;;3.67;;
14736;SDS011;7459;53.590;10.062;2024-03-22T12:48:45;7.73;;;3.30;;
14736;SDS011;7459;53.590;10.062;2024-03-22T12:51:11;7.90;;;3.70;;
14736;SDS011;7459;53.590;10.062;2024-03-22T12:53:37;9.07;;;3.30;;
14736;SDS011;7459;53.590;10.062;2024-03-22T12:56:03;7.93;;;2.92;;
14736;SDS011;7459;53.590;10.062;2024-03-22T12:58:29;7.35;;;3.47;;
14736;SDS011;7459;53.590;10.062;2024-03-22T13:00:56;5.60;;;2.28;;
14736;SDS011;7459;53.590;10.062;2024-03-22T13:03:23;7.00;;;1.85;;
14736;SDS011;7459;53.590;10.062;2024-03-22T13:05:48;5.18;;;1.70;;
14736;SDS011;7459;53.590;10.062;2024-03-22T13:08:14;4.57;;;1.60;;
14736;SDS011;7459;53.590;10.062;2024-03-22T13:10:40;4.85;;;1.70;;
14736;SDS011;7459;53.590;10.062;2024-03-22T13:13:08;4.83;;;1.57;;
14736;SDS011;7459;53.590;10.062;2024-03-22T13:15:34;4.20;;;1.52;;
14736;SDS011;7459;53.590;10.062;2024-03-22T13:18:02;5.07;;;1.77;;
14736;SDS011;7459;53.590;10.062;2024-03-22T13:20:29;4.72;;;1.67;;
14736;SDS011;7459;53.590;10.062;2024-03-22T13:22:54;4.33;;;1.60;;
14736;SDS011;7459;53.590;10.062;2024-03-22T13:25:20;4.45;;;2.20;;
14736;SDS011;7459;53.590;10.062;2024-03-22T13:27:46;3.85;;;1.50;;
14736;SDS011;7459;53.590;10.062;2024-03-22T13:30:12;4.95;;;1.30;;
14736;SDS011;7459;53.590;10.062;2024-03-22T13:32:39;4.05;;;1.30;;
14736;SDS011;7459;53.590;10.062;2024-03-22T13:35:05;4.35;;;1.40;;
14736;SDS011;7459;53.590;10.062;2024-03-22T13:37:31;4.43;;;1.50;;
14736;SDS011;7459;53.590;10.062;2024-03-22T13:39:57;4.45;;;1.50;;
14736;SDS011;7459;53.590;10.062;2024-03-22T13:42:24;2.80;;;1.20;;
14736;SDS011;7459;53.590;10.062;2024-03-22T13:44:51;4.32;;;1.20;;
14736;SDS011;7459;53.590;10.062;2024-03-22T13:47:17;4.85;;;1.50;;
14736;SDS011;7459;53.590;10.062;2024-03-22T13:49:44;3.70;;;1.35;;
14736;SDS011;7459;53.590;10.062;2024-03-22T13:52:10;5.10;;;1.67;;
14736;SDS011;7459;53.590;10.062;2024-03-22T13:54:36;3.90;;;1.45;;
14736;SDS011;7459;53.590;10.062;2024-03-22T13:57:02;5.05;;;1.38;;
14736;SDS011;7459;53.590;10.062;2024-03-22T13:59:28;4.40;;;1.50;;
14736;SDS011;7459;53.590;10.062;2024-03-22T14:01:54;3.22;;;1.20;;
14736;SDS011;7459;53.590;10.062;2024-03-22T14:04:21;2.65;;;1.00;;
14736;SDS011;7459;53.590;10.062;2024-03-22T14:06:48;3.75;;;1.30;;
14736;SDS011;7459;53.590;10.062;2024-03-22T14:09:13;2.80;;;1.07;;
14736;SDS011;7459;53.590;10.062;2024-03-22T14:11:40;3.58;;;1.08;;
14736;SDS011;7459;53.590;10.062;2024-03-22T14:14:09;2.83;;;0.95;;
14736;SDS011;7459;53.590;10.062;2024-03-22T14:16:36;2.63;;;0.90;;
14736;SDS011;7459;53.590;10.062;2024-03-22T14:19:06;2.40;;;0.60;;
14736;SDS011;7459;53.590;10.062;2024-03-22T14:21:33;2.38;;;0.73;;
14736;SDS011;7459;53.590;10.062;2024-03-22T14:23:59;2.10;;;0.65;;
14736;SDS011;7459;53.590;10.062;2024-03-22T14:26:25;3.03;;;0.97;;
14736;SDS011;7459;53.590;10.062;2024-03-22T14:28:51;3.17;;;1.33;;